createdAt,value
2018-09-23T00:02:16.029Z,21.69
2018-09-23T00:04:16.783Z,22.61
2018-09-23T00:08:21.638Z,21.46
2018-09-23T00:14:18.375Z,22.87
2018-09-23T00:18:19.114Z,22.57
2018-09-23T00:24:19.881Z,23.86
2018-09-23T00:28:20.624Z,22.18
2018-09-23T00:30:21.863Z,23.73
2018-09-23T00:34:22.755Z,23.07
2018-09-23T00:40:23.541Z,22.66
2018-09-23T00:44:24.290Z,22.99
2018-09-23T00:50:25.044Z,22.12
2018-09-23T00:56:25.851Z,23.86
2018-09-23T01:00:26.795Z,22.09
2018-09-23T01:06:27.484Z,21.7
2018-09-23T01:10:32.277Z,21.72
2018-09-23T01:16:29.139Z,22.95
2018-09-23T01:22:29.857Z,22.47
2018-09-23T01:26:30.723Z,21.86
2018-09-23T01:32:31.540Z,23.15
2018-09-23T01:36:32.411Z,22.01
2018-09-23T01:42:33.250Z,22.45
2018-09-23T01:48:35.857Z,21.88
2018-09-23T01:52:41.745Z,22
2018-09-23T01:58:51.352Z,20.68
2018-09-23T02:02:55.174Z,20.34
2018-09-23T02:08:57.246Z,20.9
2018-09-23T02:12:58.991Z,20.01
2018-09-23T02:19:00.468Z,21.28
2018-09-23T02:25:05.250Z,21.83
2018-09-23T02:29:09.526Z,21.55
2018-09-23T02:35:10.278Z,22.26
2018-09-23T02:39:11.363Z,22.39
2018-09-23T02:45:14.676Z,23.05
2018-09-23T02:51:15.402Z,20.15
2018-09-23T02:55:16.180Z,20.58
2018-09-23T03:01:17.037Z,22.42
2018-09-23T03:05:19.097Z,21.5
2018-09-23T03:11:22.787Z,21.85
2018-09-23T03:17:23.580Z,22.6
2018-09-23T03:21:24.314Z,22.3
2018-09-23T03:27:25.095Z,23.73
2018-09-23T03:31:26.025Z,22.76
2018-09-23T03:37:26.821Z,22.49
2018-09-23T03:43:27.707Z,24.2
2018-09-23T03:47:28.437Z,23.97
2018-09-23T03:53:29.196Z,24.1
2018-09-23T03:57:29.909Z,24.66
2018-09-23T04:03:30.691Z,24.27
2018-09-23T04:09:31.448Z,24.83
2018-09-23T04:13:32.203Z,23.36
2018-09-23T04:19:33.020Z,24.61
2018-09-23T04:23:33.808Z,24.61
2018-09-23T04:29:34.637Z,24.68
2018-09-23T04:35:35.385Z,26.13
2018-09-23T04:39:36.215Z,26.43
2018-09-23T04:45:36.997Z,25.02
2018-09-23T04:49:37.959Z,25.06
2018-09-23T04:55:38.734Z,28.54
2018-09-23T05:01:43.636Z,27.32
2018-09-23T05:05:40.263Z,26.5
2018-09-23T05:11:41.180Z,28.25
2018-09-23T05:15:42.060Z,27.57
2018-09-23T05:21:42.845Z,27.34
2018-09-23T05:27:43.589Z,26.93
2018-09-23T05:31:44.378Z,25.11
2018-09-23T05:37:45.263Z,25.49
2018-09-23T05:41:46.012Z,25.93
2018-09-23T05:43:46.699Z,28.1
2018-09-23T05:47:47.446Z,27.73
2018-09-23T05:53:48.327Z,34.18
2018-09-23T05:57:49.119Z,35.66
2018-09-23T06:03:49.788Z,32.94
2018-09-23T06:07:50.554Z,32.05
2018-09-23T06:09:51.323Z,30.63
2018-09-23T06:13:52.077Z,29.66
2018-09-23T06:19:52.875Z,31.51
2018-09-23T06:23:53.554Z,30.14
2018-09-23T06:29:54.399Z,31.88
2018-09-23T06:33:55.096Z,30.25
2018-09-23T06:35:55.744Z,30.61
2018-09-23T06:39:56.525Z,31.12
2018-09-23T06:45:57.410Z,28.12
2018-09-23T06:49:58.217Z,27.53
2018-09-23T06:55:59.125Z,27.66
2018-09-23T06:59:59.820Z,28.08
2018-09-23T07:02:00.577Z,29.07
2018-09-23T07:06:01.275Z,27.81
2018-09-23T07:12:02.034Z,29.54
2018-09-23T07:16:02.844Z,28.48
2018-09-23T07:22:03.624Z,31.53
2018-09-23T07:26:04.343Z,31.12
2018-09-23T07:28:05.132Z,31.03
2018-09-23T07:32:05.912Z,32
2018-09-23T07:38:06.550Z,31.58
2018-09-23T07:42:07.274Z,30.76
2018-09-23T07:48:08.102Z,24.97
2018-09-23T07:52:08.860Z,24.34
2018-09-23T07:54:09.503Z,25.54
2018-09-23T07:58:10.182Z,23.69
2018-09-23T08:04:10.985Z,23.99
2018-09-23T08:08:11.754Z,23.41
2018-09-23T08:14:12.785Z,23.03
2018-09-23T08:20:13.265Z,21.65
2018-09-23T08:24:13.969Z,21.75
2018-09-23T08:30:15.066Z,22.5
2018-09-23T08:34:15.807Z,22.93
2018-09-23T08:40:16.633Z,21.07
2018-09-23T08:46:17.361Z,23.56
2018-09-23T08:50:19.475Z,22.3
2018-09-23T08:56:18.772Z,22.05
2018-09-23T09:00:22.425Z,23
2018-09-23T09:06:20.964Z,21.57
2018-09-23T09:12:21.729Z,19.52
2018-09-23T09:16:22.446Z,21.47
2018-09-23T09:22:23.280Z,20.96
2018-09-23T09:26:24.038Z,19.24
2018-09-23T09:32:24.712Z,18.5
2018-09-23T09:38:25.533Z,20.22
2018-09-23T09:42:26.215Z,18.89
2018-09-23T09:48:27.109Z,20.02
2018-09-23T09:52:27.806Z,19.65
2018-09-23T09:58:28.474Z,18.84
2018-09-23T10:04:29.247Z,18.73
2018-09-23T10:08:30.006Z,18.28
2018-09-23T10:14:30.697Z,18.57
2018-09-23T10:18:31.421Z,18.76
2018-09-23T10:20:32.080Z,19.01
2018-09-23T10:24:32.892Z,18.88
2018-09-23T10:30:33.753Z,19.92
2018-09-23T10:34:34.511Z,18.78
2018-09-23T10:40:35.321Z,18.3
2018-09-23T10:44:36.042Z,19.63
2018-09-23T10:46:36.736Z,17.88
2018-09-23T10:50:37.534Z,17.98
2018-09-23T10:56:38.253Z,18.33
2018-09-23T11:00:38.967Z,19.32
2018-09-23T11:06:39.658Z,16.97
2018-09-23T11:10:40.375Z,17.61
2018-09-23T11:12:41.071Z,17.43
2018-09-23T11:16:41.794Z,17.35
2018-09-23T11:22:42.510Z,15.31
2018-09-23T11:26:43.252Z,16.42
2018-09-23T11:32:44.029Z,16.22
2018-09-23T11:36:45.443Z,16.52
2018-09-23T11:38:46.305Z,15.4
2018-09-23T11:42:47.225Z,16.31
2018-09-23T11:48:47.825Z,15.09
2018-09-23T11:52:48.588Z,14.54
2018-09-23T11:58:49.640Z,10.91
2018-09-23T12:02:50.271Z,10.62
2018-09-23T12:04:50.895Z,11.86
2018-09-23T12:08:51.631Z,11.37
2018-09-23T12:14:52.358Z,10.55
2018-09-23T12:18:53.014Z,10.96
2018-09-23T12:24:53.886Z,9.26
2018-09-23T12:30:54.627Z,10.07
2018-09-23T12:34:55.389Z,9.13
2018-09-23T12:40:56.083Z,10.38
2018-09-23T12:44:56.755Z,10.12
2018-09-23T12:50:57.521Z,11.2
2018-09-23T12:56:58.273Z,10.2
2018-09-23T13:00:59.107Z,10.13
2018-09-23T13:06:59.683Z,11.17
2018-09-23T13:11:01.080Z,11.93
2018-09-23T13:17:01.979Z,10.92
2018-09-23T13:23:02.749Z,10
2018-09-23T13:27:03.598Z,11.29
2018-09-23T13:33:04.309Z,13.43
2018-09-23T13:37:05.055Z,11.93
2018-09-23T13:43:05.887Z,10.41
2018-09-23T13:49:06.615Z,11.43
2018-09-23T13:53:07.364Z,11.26
2018-09-23T13:59:08.057Z,10.38
2018-09-23T14:03:08.784Z,10.33
2018-09-23T14:05:09.443Z,10.78
2018-09-23T14:09:10.118Z,11.04
2018-09-23T14:15:10.806Z,10.11
2018-09-23T14:19:11.506Z,10.43
2018-09-23T14:25:12.265Z,10.95
2018-09-23T14:29:13.074Z,10.49
2018-09-23T14:31:13.801Z,10.88
2018-09-23T14:35:14.451Z,11.72
2018-09-23T14:41:15.136Z,11.86
2018-09-23T14:45:15.892Z,10.24
2018-09-23T14:51:16.806Z,10.96
2018-09-23T14:55:17.612Z,10.36
2018-09-23T14:57:18.374Z,11.12
2018-09-23T15:01:19.172Z,10.58
2018-09-23T15:07:20.008Z,9.92
2018-09-23T15:11:20.770Z,10.38
2018-09-23T15:17:21.475Z,10.52
2018-09-23T15:21:22.636Z,10.86
2018-09-23T15:23:23.296Z,11.38
2018-09-23T15:27:24.077Z,10.66
2018-09-23T15:33:24.796Z,10.06
2018-09-23T15:37:25.574Z,11.47
2018-09-23T15:43:26.273Z,10.09
2018-09-23T15:47:27.027Z,10.48
2018-09-23T15:49:27.646Z,9.75
2018-09-23T15:53:28.447Z,9.23
2018-09-23T15:59:29.141Z,10.4
2018-09-23T16:03:29.858Z,9.81
2018-09-23T16:09:30.529Z,10.38
2018-09-23T16:15:31.311Z,12.38
2018-09-23T16:19:32.067Z,9.72
2018-09-23T16:25:32.730Z,10.55
2018-09-23T16:29:33.563Z,11.25
2018-09-23T16:35:34.323Z,11.84
2018-09-23T16:41:35.022Z,11.33
2018-09-23T16:45:35.735Z,10.64
2018-09-23T16:51:36.413Z,11.66
2018-09-23T16:55:37.159Z,14.06
2018-09-23T17:01:37.874Z,13.23
2018-09-23T17:07:38.681Z,15.16
2018-09-23T17:11:39.335Z,14.03
2018-09-23T17:17:40.122Z,14.4
2018-09-23T17:21:40.820Z,14.23
2018-09-23T17:23:41.610Z,13.56
2018-09-23T17:27:42.323Z,15.66
2018-09-23T17:33:43.085Z,14.18
2018-09-23T17:37:43.821Z,14.34
2018-09-23T17:43:44.667Z,16.28
2018-09-23T17:47:45.371Z,14.62
2018-09-23T17:49:46.112Z,14.48
2018-09-23T17:53:46.786Z,16.18
2018-09-23T17:59:47.614Z,18.57
2018-09-23T18:03:48.495Z,15.37
2018-09-23T18:09:49.189Z,14.2
2018-09-23T18:13:49.946Z,13.86
2018-09-23T18:15:50.639Z,14.3
2018-09-23T18:19:51.430Z,14.86
2018-09-23T18:25:52.198Z,13.83
2018-09-23T18:29:53.006Z,14.79
2018-09-23T18:35:53.687Z,13.03
2018-09-23T18:39:54.426Z,10.26
2018-09-23T18:41:55.085Z,10.32
2018-09-23T18:45:55.806Z,9.4
2018-09-23T18:51:56.489Z,10.5
2018-09-23T18:55:57.183Z,10.35
2018-09-23T19:01:58.132Z,11.96
2018-09-23T19:05:59.067Z,11.02
2018-09-23T19:07:59.688Z,11.18
2018-09-23T19:12:00.425Z,13.17
2018-09-23T19:18:01.419Z,11.14
2018-09-23T19:22:02.152Z,12.41
2018-09-23T19:28:02.924Z,15.06
2018-09-23T19:32:04.081Z,14.04
2018-09-23T19:34:04.827Z,11.49
2018-09-23T19:38:05.662Z,12.15
2018-09-23T19:44:06.414Z,14.09
2018-09-23T19:48:07.180Z,11.38
2018-09-23T19:54:08.759Z,11.93
2018-09-23T20:00:10.090Z,12.3
2018-09-23T20:04:11.446Z,12.44
2018-09-23T20:10:12.627Z,10.4
2018-09-23T20:14:13.343Z,11.74
2018-09-23T20:20:14.121Z,14.22
2018-09-23T20:26:15.020Z,11.86
2018-09-23T20:30:17.238Z,13.4
2018-09-23T20:36:19.678Z,13.22
2018-09-23T20:40:20.526Z,13.95
2018-09-23T20:46:21.305Z,10.64
2018-09-23T20:52:22.094Z,10.11
2018-09-23T20:56:22.981Z,12.13
2018-09-23T21:02:29.178Z,10.81
2018-09-23T21:06:29.988Z,11.84
2018-09-23T21:12:30.630Z,10.7
2018-09-23T21:16:31.389Z,10.83
2018-09-23T21:18:31.982Z,9.85
2018-09-23T21:22:32.733Z,9.29
2018-09-23T21:28:33.476Z,12.1
2018-09-23T21:32:34.257Z,12.57
2018-09-23T21:38:34.898Z,12.1
2018-09-23T21:44:35.660Z,12.15
2018-09-23T21:48:36.373Z,11.12
2018-09-23T21:54:37.185Z,9.57
2018-09-23T21:58:37.976Z,9.41
2018-09-23T22:04:38.790Z,10.22
2018-09-23T22:10:39.511Z,13.56
2018-09-23T22:14:40.220Z,9.03
2018-09-23T22:20:40.991Z,12.39
2018-09-23T22:24:41.783Z,9.94
2018-09-23T22:30:42.586Z,10.59
2018-09-23T22:36:43.271Z,11.17
2018-09-23T22:40:44.009Z,11.2
2018-09-23T22:46:44.795Z,12.03
2018-09-23T22:50:45.638Z,10.61
2018-09-23T22:56:46.458Z,12.4
2018-09-23T23:02:47.186Z,12.99
2018-09-23T23:06:47.848Z,13.78
2018-09-23T23:12:48.610Z,12.31
2018-09-23T23:16:49.398Z,10.59
2018-09-23T23:22:50.189Z,11.9
2018-09-23T23:28:51.006Z,13.25
2018-09-23T23:32:51.741Z,11.34
2018-09-23T23:38:52.481Z,9.83
2018-09-23T23:42:53.215Z,9.82
2018-09-23T23:44:53.959Z,10.47
2018-09-23T23:48:54.727Z,10.72
2018-09-23T23:54:55.596Z,10.09
2018-09-23T23:58:56.386Z,12.08
